Time;durP1;ratioP1;P1;durP2;ratioP2;P2;SDS_P1;SDS_P2;PMS_P1;PMS_P2;Temp;Humidity;BMP_temperature;BMP_pressure;BME280_temperature;BME280_humidity;BME280_pressure;Samples;Min_cycle;Max_cycle;Signal;HPM_P1;HPM_P2
2022/09/20 00:00:05;;;;;;;443.02;397.38;;;;;;;16.39;55.89;99462.34;319334;30;2136;-78
2022/09/20 00:00:15;;;;;;;439.67;394.05;;;;;;;16.38;55.80;99463.28;318777;30;2386;-78
2022/09/20 00:00:26;;;;;;;443.87;398.10;;;;;;;16.38;55.74;99465.94;319064;30;2354;-78
2022/09/20 00:00:36;;;;;;;443.70;397.95;;;;;;;16.39;55.78;99476.41;319384;31;1163;-78
2022/09/20 00:00:47;;;;;;;445.60;399.93;;;;;;;16.42;56.19;99459.50;321459;30;2526;-78
2022/09/20 00:01:08;;;;;;;441.17;395.77;;;;;;;16.33;55.59;99465.41;319463;30;2475;-78
2022/09/20 00:01:48;;;;;;;445.25;400.08;;;;;;;16.32;56.29;99469.00;325022;30;1525;-78
2022/09/20 00:01:58;;;;;;;437.30;392.33;;;;;;;16.35;56.28;99460.88;317154;31;2293;-78
2022/09/20 00:02:09;;;;;;;440.65;395.65;;;;;;;16.34;56.07;99464.44;315206;31;871;-78
2022/09/20 00:02:20;;;;;;;447.15;401.67;;;;;;;16.36;56.51;99465.19;311069;31;3483;-78
2022/09/20 00:02:30;;;;;;;453.33;407.53;;;;;;;16.33;56.43;99458.31;309531;31;3510;-78
2022/09/20 00:02:40;;;;;;;459.48;413.40;;;;;;;16.34;56.48;99464.44;310580;31;4618;-78
2022/09/20 00:02:51;;;;;;;453.33;407.37;;;;;;;16.35;56.66;99459.06;308073;32;1934;-78
2022/09/20 00:03:01;;;;;;;460.85;414.45;;;;;;;16.33;56.52;99458.31;302800;32;3096;-78
2022/09/20 00:03:12;;;;;;;456.07;409.70;;;;;;;16.33;56.21;99465.41;300882;32;2936;-78
2022/09/20 00:03:23;;;;;;;450.50;404.38;;;;;;;16.35;56.47;99466.16;302139;32;1138;-78
2022/09/20 00:03:37;;;;;;;440.63;395.13;;;;;;;16.36;56.54;99467.84;305458;32;2091;-78
2022/09/20 00:03:54;;;;;;;446.30;400.73;;;;;;;16.37;56.86;99458.97;307942;32;1910;-78
2022/09/20 00:04:05;;;;;;;444.20;398.73;;;;;;;16.38;56.35;99463.28;303222;32;1019;-78
2022/09/20 00:04:16;;;;;;;440.30;394.95;;;;;;;16.39;55.92;99467.63;298664;32;2810;-78
2022/09/20 00:04:26;;;;;;;441.40;395.95;;;;;;;16.41;55.99;99465.75;296180;32;5305;-78
2022/09/20 00:04:37;;;;;;;455.43;409.43;;;;;;;16.41;55.78;99466.59;302213;32;893;-78
2022/09/20 00:04:48;;;;;;;452.17;406.25;;;;;;;16.42;55.87;99462.16;298275;32;4787;-78
2022/09/20 00:05:00;;;;;;;446.58;401.00;;;;;;;16.43;56.26;99463.84;296795;33;4949;-78
2022/09/20 00:05:10;;;;;;;437.10;391.90;;;;;;;16.35;55.98;99466.16;294143;33;4153;-78
2022/09/20 00:05:21;;;;;;;439.52;394.25;;;;;;;16.32;56.30;99455.78;296923;33;1354;-78
2022/09/20 00:05:35;;;;;;;436.93;391.67;;;;;;;16.32;56.44;99459.28;298709;32;3923;-78
2022/09/20 00:05:47;;;;;;;439.17;393.90;;;;;;;16.30;56.45;99467.28;298018;32;3084;-80
2022/09/20 00:05:59;;;;;;;440.15;394.90;;;;;;;16.27;56.52;99461.38;295568;33;3092;-79
2022/09/20 00:06:11;;;;;;;445.73;400.23;;;;;;;16.27;55.99;99464.84;291388;33;1354;-78
2022/09/20 00:06:27;;;;;;;452.65;406.70;;;;;;;16.33;56.25;99468.03;289373;34;1490;-79
2022/09/20 00:06:37;;;;;;;453.88;407.83;;;;;;;16.32;56.28;99466.34;285490;34;1310;-79
2022/09/20 00:06:48;;;;;;;448.33;402.40;;;;;;;16.33;56.16;99468.03;287306;34;6768;-79
2022/09/20 00:06:58;;;;;;;443.77;397.90;;;;;;;16.34;56.46;99459.16;288723;34;5618;-79
2022/09/20 00:07:09;;;;;;;449.73;403.67;;;;;;;16.33;56.47;99460.97;288246;34;1433;-79
2022/09/20 00:07:19;;;;;;;454.87;408.63;;;;;;;16.32;56.62;99458.41;288590;34;7614;-79
2022/09/20 00:07:30;;;;;;;454.33;407.85;;;;;;;16.32;56.38;99466.34;288681;33;5973;-79
2022/09/20 00:07:43;;;;;;;449.88;403.50;;;;;;;16.27;56.55;99464.84;285977;34;5655;-79
2022/09/20 00:07:54;;;;;;;440.88;395.08;;;;;;;16.32;56.31;99466.34;280952;35;991;-79
2022/09/20 00:08:06;;;;;;;439.70;394.08;;;;;;;16.26;56.58;99457.88;280404;34;5091;-79
2022/09/20 00:08:16;;;;;;;440.23;394.75;;;;;;;16.22;57.24;99466.09;278799;35;4854;-77
2022/09/20 00:10:36;;;;;;;406.15;351.82;;;;;;;16.34;56.36;99464.44;2503764;27;20463;-79
2022/09/20 00:10:47;;;;;;;421.65;376.60;;;;;;;16.29;56.10;99462.97;353032;28;1403;-79
2022/09/20 00:11:01;;;;;;;428.58;383.27;;;;;;;16.33;56.50;99462.75;350503;28;1049;-78
2022/09/20 00:11:33;;;;;;;434.00;388.80;;;;;;;16.29;56.57;99462.13;348865;28;1386;-78
2022/09/20 00:11:44;;;;;;;438.45;393.17;;;;;;;16.29;56.63;99470.88;348272;28;3810;-78
2022/09/20 00:11:54;;;;;;;431.30;386.15;;;;;;;16.27;56.46;99458.72;348144;28;2624;-78
2022/09/20 00:12:05;;;;;;;428.63;383.35;;;;;;;16.26;56.61;99463.16;347569;28;1031;-79
2022/09/20 00:12:15;;;;;;;432.67;387.13;;;;;;;16.27;56.21;99464.00;348349;28;1194;-79
2022/09/20 00:12:26;;;;;;;439.38;393.58;;;;;;;16.29;56.03;99464.75;348814;28;1247;-79
2022/09/20 00:12:36;;;;;;;435.07;389.50;;;;;;;16.32;56.07;99461.06;349004;28;1270;-78
2022/09/20 00:12:47;;;;;;;433.65;388.17;;;;;;;16.30;56.09;99463.81;349291;28;1263;-78
2022/09/20 00:12:57;;;;;;;440.07;394.53;;;;;;;16.24;56.39;99459.78;350319;28;1198;-78
2022/09/20 00:13:08;;;;;;;446.25;400.70;;;;;;;16.23;56.58;99462.53;350311;28;1247;-78
2022/09/20 00:13:19;;;;;;;443.83;398.38;;;;;;;16.24;56.45;99462.41;348982;28;927;-78
2022/09/20 00:13:29;;;;;;;441.65;396.33;;;;;;;16.24;56.32;99454.50;348283;28;1427;-78
2022/09/20 00:13:41;;;;;;;440.03;394.77;;;;;;;16.25;56.32;99455.34;347686;28;809;-78
2022/09/20 00:13:53;;;;;;;441.85;396.48;;;;;;;16.27;56.07;99464.84;348781;28;1397;-78
2022/09/20 00:14:07;;;;;;;438.25;392.83;;;;;;;16.19;56.09;99461.03;350213;28;1872;-78
2022/09/20 00:14:17;;;;;;;433.75;388.38;;;;;;;16.21;56.20;99462.63;349959;28;1438;-78
2022/09/20 00:14:27;;;;;;;437.63;392.23;;;;;;;16.21;56.29;99454.69;347925;28;1035;-78
2022/09/20 00:14:38;;;;;;;445.53;399.90;;;;;;;16.25;56.53;99463.25;349392;28;1309;-78
2022/09/20 00:14:48;;;;;;;444.67;399.10;;;;;;;16.25;56.42;99464.13;350084;28;1395;-78
2022/09/20 00:14:59;;;;;;;448.37;402.67;;;;;;;16.24;56.83;99467.69;348736;28;1311;-78
2022/09/20 00:15:09;;;;;;;442.30;396.80;;;;;;;16.24;56.62;99465.06;346050;28;1290;-78
2022/09/20 00:15:20;;;;;;;443.20;397.73;;;;;;;16.27;56.69;99464.00;346272;28;841;-78
2022/09/20 00:15:31;;;;;;;439.47;394.13;;;;;;;16.26;56.29;99455.25;349064;28;1084;-78
2022/09/20 00:15:42;;;;;;;443.38;397.88;;;;;;;16.27;56.02;99456.94;347761;28;1343;-79
2022/09/20 00:15:53;;;;;;;442.10;396.63;;;;;;;16.26;56.77;99468.44;347646;28;1279;-79
2022/09/20 00:16:08;;;;;;;436.48;391.20;;;;;;;16.26;56.22;99457.03;344701;28;1220;-79
2022/09/20 00:16:21;;;;;;;431.05;385.98;;;;;;;16.26;56.17;99463.16;343516;28;849;-79
2022/09/20 00:16:33;;;;;;;436.23;390.85;;;;;;;16.28;56.52;99461.28;345872;28;1520;-78
2022/09/20 00:16:44;;;;;;;436.92;391.50;;;;;;;16.24;56.52;99466.84;345974;28;1408;-78
2022/09/20 00:16:54;;;;;;;436.87;391.40;;;;;;;16.20;56.48;99466.22;343371;28;1354;-78
2022/09/20 00:17:05;;;;;;;444.52;398.83;;;;;;;16.18;56.74;99462.81;346264;28;924;-78
2022/09/20 00:17:15;;;;;;;443.17;397.50;;;;;;;16.14;56.53;99460.47;342547;28;1159;-77
2022/09/20 00:17:25;;;;;;;436.17;390.75;;;;;;;16.15;56.91;99465.66;339650;29;1373;-78
2022/09/20 00:17:36;;;;;;;427.90;382.70;;;;;;;16.16;56.81;99458.59;342721;28;1333;-77
2022/09/20 00:17:46;;;;;;;426.15;381.15;;;;;;;16.18;56.74;99460.19;344535;28;999;-78
2022/09/20 00:17:57;;;;;;;429.77;384.60;;;;;;;16.20;56.40;99458.28;344805;28;1241;-78
2022/09/20 00:18:07;;;;;;;425.27;380.17;;;;;;;16.19;56.45;99456.59;344873;28;817;-78
2022/09/20 00:18:18;;;;;;;425.30;380.20;;;;;;;16.21;56.45;99454.69;344581;28;1197;-78
2022/09/20 00:18:28;;;;;;;429.73;384.60;;;;;;;16.23;56.20;99452.81;341236;28;1366;-78
2022/09/20 00:18:38;;;;;;;439.10;393.65;;;;;;;16.24;56.11;99459.78;338152;29;1434;-78
2022/09/20 00:18:51;;;;;;;440.93;395.27;;;;;;;16.25;56.05;99460.63;347681;28;1548;-78
2022/09/20 00:19:02;;;;;;;441.23;395.58;;;;;;;16.27;56.62;99453.44;346619;28;1281;-78
2022/09/20 00:19:17;;;;;;;440.27;394.85;;;;;;;16.25;56.28;99450.91;340626;28;1737;-78
2022/09/20 00:19:28;;;;;;;438.05;392.77;;;;;;;16.24;56.51;99457.13;346469;28;1898;-78
2022/09/20 00:19:38;;;;;;;447.23;401.65;;;;;;;16.21;56.43;99454.69;344608;28;1461;-78
2022/09/20 00:19:49;;;;;;;449.37;403.53;;;;;;;16.23;56.25;99452.81;342096;28;963;-78
2022/09/20 00:19:59;;;;;;;446.40;400.70;;;;;;;16.24;56.26;99451.84;342726;28;1225;-78
2022/09/20 00:20:10;;;;;;;441.43;395.97;;;;;;;16.25;56.39;99461.47;340734;29;1253;-78
2022/09/20 00:20:20;;;;;;;443.47;397.97;;;;;;;16.26;56.10;99457.03;340795;29;983;-77
2022/09/20 00:20:30;;;;;;;441.77;396.23;;;;;;;16.25;55.97;99453.56;337706;29;1780;-77
2022/09/20 00:20:47;;;;;;;441.27;395.63;;;;;;;16.26;56.27;99454.41;334816;29;1755;-77
2022/09/20 00:20:57;;;;;;;436.45;391.15;;;;;;;16.24;56.38;99451.84;337331;29;2866;-78
2022/09/20 00:21:17;;;;;;;440.03;394.77;;;;;;;16.19;56.60;99453.94;336769;29;1794;-78
2022/09/20 00:21:29;;;;;;;443.52;398.00;;;;;;;16.21;56.63;99451.22;329766;29;2207;-78
2022/09/20 00:21:39;;;;;;;441.75;396.23;;;;;;;16.23;56.60;99450.16;329198;29;1841;-78
2022/09/20 00:21:49;;;;;;;446.80;401.15;;;;;;;16.25;56.00;99450.91;329097;30;1332;-78
2022/09/20 00:22:00;;;;;;;446.67;400.97;;;;;;;16.27;55.95;99454.28;329170;30;1387;-78
2022/09/20 00:22:10;;;;;;;439.13;393.77;;;;;;;16.29;56.09;99452.41;327882;30;1337;-78
2022/09/20 00:22:21;;;;;;;433.20;387.98;;;;;;;16.31;56.19;99452.28;325704;30;914;-78
2022/09/20 00:22:31;;;;;;;431.27;386.03;;;;;;;16.32;56.36;99453.13;325228;30;1843;-78
2022/09/20 00:22:41;;;;;;;435.08;389.65;;;;;;;16.30;56.64;99448.81;324669;30;2171;-78
2022/09/20 00:22:52;;;;;;;437.57;392.10;;;;;;;16.32;56.92;99442.56;323404;30;1043;-78
2022/09/20 00:23:02;;;;;;;437.83;392.20;;;;;;;16.33;56.70;99447.75;318156;30;2415;-78
2022/09/20 00:23:13;;;;;;;438.87;393.27;;;;;;;16.30;56.16;99447.97;318428;30;2589;-78
2022/09/20 00:23:23;;;;;;;436.13;390.67;;;;;;;16.27;56.19;99443.72;322053;30;1221;-77
2022/09/20 00:23:34;;;;;;;434.27;388.90;;;;;;;16.26;56.24;99442.03;320345;30;2588;-77
2022/09/20 00:23:45;;;;;;;432.60;387.25;;;;;;;16.26;56.35;99447.31;318486;30;2644;-78
2022/09/20 00:23:56;;;;;;;438.52;392.92;;;;;;;16.28;56.51;99450.69;319776;30;1808;-78
2022/09/20 00:24:09;;;;;;;442.33;396.58;;;;;;;16.27;56.60;99451.66;318646;31;914;-78
2022/09/20 00:24:19;;;;;;;447.95;401.90;;;;;;;16.27;56.28;99443.72;316317;31;1375;-78
2022/09/20 00:24:29;;;;;;;450.70;404.47;;;;;;;16.23;56.09;99451.97;316345;31;1999;-78
2022/09/20 00:24:40;;;;;;;454.33;408.08;;;;;;;16.20;56.48;99453.00;312411;31;2467;-78
2022/09/20 00:24:50;;;;;;;452.07;405.87;;;;;;;16.20;56.42;99450.38;310683;31;1472;-79
2022/09/20 00:25:01;;;;;;;441.90;396.13;;;;;;;16.22;56.27;99456.38;305719;32;2929;-79
2022/09/20 00:25:11;;;;;;;435.47;389.90;;;;;;;16.24;56.47;99443.09;306031;31;3146;-79
2022/09/20 00:25:21;;;;;;;434.83;389.30;;;;;;;16.26;56.26;99449.97;308619;32;1349;-78
2022/09/20 00:25:32;;;;;;;439.25;393.60;;;;;;;16.28;56.31;99448.06;312176;31;3296;-78
2022/09/20 00:25:42;;;;;;;444.87;398.97;;;;;;;16.29;56.29;99452.41;312412;31;3422;-78
2022/09/20 00:25:57;;;;;;;450.80;404.83;;;;;;;16.26;56.18;99452.59;310799;31;1352;-78
2022/09/20 00:26:08;;;;;;;449.10;403.35;;;;;;;16.29;56.17;99449.75;309454;31;1300;-78
2022/09/20 00:26:18;;;;;;;439.63;394.20;;;;;;;16.30;55.92;99454.09;306145;31;2420;-78
2022/09/20 00:26:28;;;;;;;440.05;394.42;;;;;;;16.32;56.04;99450.50;308205;31;2022;-78
2022/09/20 00:26:39;;;;;;;445.13;399.23;;;;;;;16.34;56.18;99456.53;307398;32;1340;-78
2022/09/20 00:26:50;;;;;;;451.92;405.88;;;;;;;16.35;56.43;99447.66;305336;32;1307;-77
2022/09/20 00:27:01;;;;;;;451.48;405.52;;;;;;;16.30;56.16;99448.81;302880;32;3804;-77
2022/09/20 00:27:12;;;;;;;446.17;400.23;;;;;;;16.30;56.22;99453.25;301247;32;4203;-78
2022/09/20 00:27:23;;;;;;;443.55;397.70;;;;;;;16.30;56.17;99447.97;300193;32;973;-78
2022/09/20 00:27:33;;;;;;;441.58;395.88;;;;;;;16.30;56.10;99447.97;298596;32;4199;-77
2022/09/20 00:27:44;;;;;;;441.83;396.07;;;;;;;16.32;56.07;99450.50;297439;32;4828;-77
2022/09/20 00:27:55;;;;;;;440.88;395.10;;;;;;;16.29;56.07;99455.03;297718;33;4529;-78
2022/09/20 00:28:05;;;;;;;439.98;394.23;;;;;;;16.26;56.12;99452.59;296041;33;1447;-79
2022/09/20 00:28:15;;;;;;;438.27;392.60;;;;;;;16.25;56.26;99450.91;298355;32;4428;-78
2022/09/20 00:28:27;;;;;;;442.25;396.50;;;;;;;16.25;56.18;99450.91;298922;32;3505;-78
2022/09/20 00:28:37;;;;;;;446.88;401.08;;;;;;;16.26;56.18;99449.97;298194;33;858;-78
2022/09/20 00:28:47;;;;;;;444.80;399.00;;;;;;;16.26;56.05;99452.59;292470;33;2916;-78
2022/09/20 00:28:58;;;;;;;443.08;397.10;;;;;;;16.27;56.18;99442.88;292233;33;3802;-79
2022/09/20 00:29:09;;;;;;;438.15;392.25;;;;;;;16.29;55.96;99446.28;295170;33;902;-79
2022/09/20 00:29:20;;;;;;;435.77;390.00;;;;;;;16.28;56.22;99450.69;295690;33;1269;-79
2022/09/20 00:29:30;;;;;;;442.40;396.50;;;;;;;16.27;55.98;99454.28;292274;33;8127;-79
2022/09/20 00:29:41;;;;;;;444.97;398.93;;;;;;;16.25;55.87;99450.06;289400;33;5853;-79
2022/09/20 00:29:52;;;;;;;446.65;400.63;;;;;;;16.25;55.86;99450.91;290315;34;1255;-79
2022/09/20 00:30:03;;;;;;;449.60;403.50;;;;;;;16.26;56.04;99447.31;291843;33;7688;-79
2022/09/20 00:30:13;;;;;;;452.75;406.55;;;;;;;16.17;55.67;99442.66;291108;33;5718;-78
2022/09/20 00:30:23;;;;;;;453.40;407.17;;;;;;;16.18;56.98;99444.34;291049;34;2132;-79
2022/09/20 00:30:34;;;;;;;447.15;400.92;;;;;;;16.20;55.86;99441.59;289184;34;6129;-78
2022/09/20 00:30:44;;;;;;;439.43;393.37;;;;;;;16.22;56.21;99448.47;288121;34;5627;-78
2022/09/20 00:30:55;;;;;;;440.05;394.02;;;;;;;16.25;56.30;99452.69;286394;34;4745;-78
2022/09/20 00:31:06;;;;;;;442.97;396.97;;;;;;;16.25;56.15;99450.91;286442;34;1256;-78
2022/09/20 00:31:17;;;;;;;447.27;401.42;;;;;;;16.24;56.23;99445.72;281341;34;6257;-79
2022/09/20 00:31:27;;;;;;;444.48;398.58;;;;;;;16.20;56.26;99441.59;280705;34;9429;-78
2022/09/20 00:31:41;;;;;;;442.90;396.93;;;;;;;16.20;56.41;99445.09;282785;35;1316;-78
2022/09/20 00:31:51;;;;;;;441.55;395.60;;;;;;;16.16;56.16;99451.50;280148;35;903;-78
2022/09/20 00:32:01;;;;;;;445.67;399.83;;;;;;;16.17;56.00;99450.56;281395;34;8489;-78
2022/09/20 00:32:12;;;;;;;447.23;401.33;;;;;;;16.20;56.21;99447.72;279144;35;9288;-78
2022/09/20 00:32:22;;;;;;;449.25;403.10;;;;;;;16.21;56.31;99448.56;278199;35;1375;-78
2022/09/20 00:32:33;;;;;;;445.50;399.43;;;;;;;16.21;56.28;99446.78;276523;35;7497;-77
2022/09/20 00:35:08;;;;;;;426.45;381.95;;;;;;;16.14;56.13;99461.34;351796;28;769;-78
2022/09/20 00:35:19;;;;;;;424.10;379.55;;;;;;;16.10;56.01;99456.34;348981;28;802;-78
2022/09/20 00:35:30;;;;;;;422.93;378.37;;;;;;;16.11;56.10;99461.53;347489;28;1300;-78
2022/09/20 00:35:43;;;;;;;422.77;377.85;;;;;;;16.12;56.27;99460.59;348846;28;1313;-77
2022/09/20 00:35:54;;;;;;;431.95;386.80;;;;;;;16.14;56.44;99460.47;347500;28;850;-78
2022/09/20 00:36:04;;;;;;;429.20;384.17;;;;;;;16.12;56.31;99457.09;347700;28;858;-78
2022/09/20 00:36:15;;;;;;;436.83;391.58;;;;;;;16.13;56.36;99451.72;348936;28;929;-79
2022/09/20 00:36:28;;;;;;;437.30;391.93;;;;;;;16.10;56.44;99449.28;346132;28;1216;-77
2022/09/20 00:36:38;;;;;;;441.75;396.08;;;;;;;16.07;57.02;99452.13;348311;28;1307;-78
2022/09/20 00:36:49;;;;;;;443.75;397.83;;;;;;;16.07;56.78;99462.69;346076;28;932;-78
2022/09/20 00:36:59;;;;;;;442.97;397.00;;;;;;;16.07;56.81;99456.56;346180;28;1325;-78
2022/09/20 00:37:10;;;;;;;431.38;385.60;;;;;;;16.06;56.61;99460.97;348891;28;1236;-78
2022/09/20 00:37:20;;;;;;;421.23;375.83;;;;;;;16.08;56.99;99460.88;349011;28;1212;-78
2022/09/20 00:37:30;;;;;;;415.90;370.80;;;;;;;16.09;56.82;99458.16;346194;28;1220;-78
2022/09/20 00:37:42;;;;;;;424.37;378.93;;;;;;;16.13;56.40;99461.44;347662;28;915;-78
2022/09/20 00:37:52;;;;;;;425.15;379.90;;;;;;;16.15;56.75;99464.81;349803;28;1290;-78
2022/09/20 00:38:02;;;;;;;426.90;381.93;;;;;;;16.18;56.39;99459.34;346000;28;1331;-78
2022/09/20 00:38:13;;;;;;;425.37;380.37;;;;;;;16.19;56.57;99459.22;346165;28;1174;-78
2022/09/20 00:38:23;;;;;;;436.10;390.55;;;;;;;16.21;56.64;99453.84;348781;28;1330;-78
2022/09/20 00:38:34;;;;;;;441.27;395.37;;;;;;;16.22;56.44;99461.66;347535;28;1204;-78
2022/09/20 00:38:44;;;;;;;440.88;395.13;;;;;;;16.24;56.27;99459.78;344903;28;1267;-78
2022/09/20 00:38:56;;;;;;;426.30;381.07;;;;;;;16.26;56.26;99462.31;343385;28;1303;-78
2022/09/20 00:39:06;;;;;;;419.40;374.50;;;;;;;16.28;56.41;99456.00;344169;28;1299;-78
2022/09/20 00:39:16;;;;;;;419.73;374.93;;;;;;;16.30;56.36;99459.38;345965;28;1909;-78
2022/09/20 00:39:27;;;;;;;422.05;377.27;;;;;;;16.30;56.42;99459.38;345130;28;3052;-78
2022/09/20 00:39:37;;;;;;;421.37;376.50;;;;;;;16.29;56.32;99457.69;344899;28;1213;-79
2022/09/20 00:39:48;;;;;;;424.10;378.83;;;;;;;16.30;56.56;99454.09;344628;28;1746;-79
2022/09/20 00:39:58;;;;;;;424.38;379.13;;;;;;;16.29;56.29;99460.31;346250;28;1294;-78
2022/09/20 00:40:19;;;;;;;425.77;380.43;;;;;;;16.28;56.39;99460.41;347128;28;856;-78
2022/09/20 00:40:29;;;;;;;417.90;372.92;;;;;;;16.29;56.03;99460.31;348882;28;919;-77
2022/09/20 00:40:41;;;;;;;415.58;370.58;;;;;;;16.30;56.22;99459.38;348770;28;1091;-79
2022/09/20 00:40:51;;;;;;;415.80;370.55;;;;;;;16.29;55.81;99455.03;344643;28;1331;-78
2022/09/20 00:41:01;;;;;;;406.90;361.80;;;;;;;16.30;56.16;99459.38;345054;28;1173;-78
2022/09/20 00:41:12;;;;;;;404.57;359.07;;;;;;;16.32;56.00;99461.06;344787;28;924;-78
2022/09/20 00:41:22;;;;;;;405.00;360.07;;;;;;;16.33;56.20;99457.47;346783;28;1204;-78
2022/09/20 00:41:33;;;;;;;410.02;365.00;;;;;;;16.33;55.95;99457.47;347107;28;1724;-78
2022/09/20 00:41:44;;;;;;;423.00;377.63;;;;;;;16.32;56.13;99461.06;344735;28;1367;-78
2022/09/20 00:41:54;;;;;;;429.47;383.97;;;;;;;16.32;55.98;99461.06;346107;28;957;-78
2022/09/20 00:42:05;;;;;;;431.45;386.10;;;;;;;16.31;56.18;99465.50;345467;28;925;-79
2022/09/20 00:42:15;;;;;;;426.45;381.25;;;;;;;16.30;56.19;99458.53;345908;28;1355;-79
2022/09/20 00:42:29;;;;;;;418.00;372.90;;;;;;;16.30;56.39;99456.72;342122;28;1243;-78
2022/09/20 00:42:39;;;;;;;419.85;374.75;;;;;;;16.29;56.06;99457.69;347119;28;1450;-78
2022/09/20 00:42:50;;;;;;;419.30;374.37;;;;;;;16.26;56.05;99462.31;345333;28;1224;-78
2022/09/20 00:43:00;;;;;;;423.45;378.35;;;;;;;16.22;56.71;99456.38;344674;28;1666;-78
2022/09/20 00:43:15;;;;;;;422.20;377.10;;;;;;;16.20;56.38;99453.00;340349;29;1312;-78
2022/09/20 00:43:41;;;;;;;415.70;370.85;;;;;;;16.12;56.47;99460.59;339512;29;959;-78
2022/09/20 00:43:51;;;;;;;416.52;372.10;;;;;;;16.17;56.81;99461.13;336844;29;1110;-78
2022/09/20 00:44:44;;;;;;;418.85;374.17;;;;;;;16.24;56.49;99459.78;335747;29;1267;-79
2022/09/20 00:44:55;;;;;;;413.42;369.23;;;;;;;16.24;56.25;99459.78;338067;29;1685;-79
2022/09/20 00:45:06;;;;;;;421.60;376.95;;;;;;;16.25;56.31;99455.34;339787;28;1738;-78
2022/09/20 00:45:20;;;;;;;442.90;397.45;;;;;;;16.24;56.31;99459.78;335302;29;2168;-79
2022/09/20 00:45:31;;;;;;;475.17;428.98;;;;;;;16.20;56.43;99458.28;337808;28;1835;-78
2022/09/20 00:45:43;;;;;;;493.33;446.92;;;;;;;16.19;56.42;99456.59;337384;29;1253;-78
2022/09/20 00:45:53;;;;;;;505.35;458.77;;;;;;;16.18;56.57;99454.91;334342;29;1402;-78
2022/09/20 00:46:04;;;;;;;516.28;469.38;;;;;;;16.20;56.12;99463.56;333924;29;1101;-78
2022/09/20 00:46:42;;;;;;;536.03;488.60;;;;;;;16.18;56.44;99454.91;333034;29;1345;-78
2022/09/20 00:46:52;;;;;;;544.80;497.98;;;;;;;16.17;56.72;99453.22;329568;29;2334;-79
2022/09/20 00:47:02;;;;;;;546.40;499.13;;;;;;;16.16;56.75;99467.34;328746;29;2115;-79
2022/09/20 00:47:20;;;;;;;555.70;507.87;;;;;;;16.18;56.77;99454.91;326668;30;1614;-78
2022/09/20 00:47:43;;;;;;;547.15;499.55;;;;;;;16.17;56.62;99455.84;326848;29;2658;-78
2022/09/20 00:48:00;;;;;;;536.58;489.30;;;;;;;16.19;56.45;99456.59;332434;29;1904;-77
2022/09/20 00:48:21;;;;;;;541.38;494.13;;;;;;;16.21;56.57;99459.13;331859;29;834;-79
2022/09/20 00:48:31;;;;;;;562.50;514.83;;;;;;;16.18;56.51;99454.06;322388;30;3820;-77
2022/09/20 00:48:42;;;;;;;561.30;513.67;;;;;;;16.16;57.04;99462.06;319338;30;3072;-79
2022/09/20 00:49:04;;;;;;;561.10;513.08;;;;;;;16.11;56.39;99461.53;319369;30;2941;-78
2022/09/20 00:49:18;;;;;;;570.90;522.42;;;;;;;16.08;56.72;99464.38;314440;31;1800;-78
2022/09/20 00:49:28;;;;;;;568.20;520.10;;;;;;;16.11;56.54;99464.16;311804;31;971;-77
2022/09/20 00:49:39;;;;;;;571.13;522.88;;;;;;;16.14;56.69;99463.97;313281;31;3087;-77
2022/09/20 00:49:50;;;;;;;575.63;527.27;;;;;;;16.17;56.35;99455.00;312014;31;3254;-77
2022/09/20 00:50:13;;;;;;;566.05;517.72;;;;;;;16.16;56.38;99454.16;310281;31;2689;-78
2022/09/20 00:50:38;;;;;;;544.42;497.00;;;;;;;16.19;56.56;99456.59;312889;31;2573;-77
2022/09/20 00:50:54;;;;;;;530.78;483.95;;;;;;;16.19;56.35;99456.59;312571;31;3630;-78
2022/09/20 00:51:09;;;;;;;509.77;463.20;;;;;;;16.19;55.98;99463.66;311308;31;4413;-78
2022/09/20 00:51:27;;;;;;;484.80;438.73;;;;;;;16.13;56.27;99462.28;307432;31;5042;-77
2022/09/20 00:51:38;;;;;;;484.92;438.65;;;;;;;16.15;56.30;99460.38;305263;32;4197;-77
2022/09/20 00:51:51;;;;;;;480.48;434.08;;;;;;;16.16;56.38;99456.78;307252;31;3956;-78
2022/09/20 00:52:01;;;;;;;474.50;428.23;;;;;;;16.16;56.35;99459.44;307916;31;4411;-78
2022/09/20 00:52:12;;;;;;;485.37;438.87;;;;;;;16.15;56.64;99455.09;307442;32;1171;-78
2022/09/20 00:52:22;;;;;;;487.88;441.30;;;;;;;16.12;56.75;99465.88;304664;32;3501;-78
2022/09/20 00:52:33;;;;;;;493.63;446.90;;;;;;;16.08;56.87;99464.38;303046;32;3852;-78
2022/09/20 00:52:44;;;;;;;488.92;442.27;;;;;;;16.07;56.69;99467.97;302181;32;1388;-79
2022/09/20 00:53:35;;;;;;;495.67;448.83;;;;;;;16.14;56.64;99468.41;304347;32;5315;-78
2022/09/20 00:53:47;;;;;;;481.26;435.64;;;;;;;16.19;56.35;99467.16;297275;32;6405;-78
2022/09/20 00:53:58;;;;;;;485.92;439.77;;;;;;;16.20;56.48;99462.72;298058;33;1281;-78
2022/09/20 00:54:09;;;;;;;491.95;445.52;;;;;;;16.21;56.25;99470.53;294147;33;5034;-78
2022/09/20 00:54:19;;;;;;;487.97;441.60;;;;;;;16.24;56.38;99466.84;293282;33;5779;-78
2022/09/20 00:54:30;;;;;;;477.63;431.52;;;;;;;16.25;56.65;99464.13;291188;33;1362;-78
2022/09/20 00:54:40;;;;;;;473.40;427.23;;;;;;;16.24;56.31;99465.06;293211;33;4662;-78
2022/09/20 00:54:50;;;;;;;476.05;429.83;;;;;;;16.23;56.53;99466.00;291159;33;6836;-77
2022/09/20 00:55:02;;;;;;;476.23;429.90;;;;;;;16.20;56.25;99468.84;288172;33;8089;-77
2022/09/20 00:55:13;;;;;;;475.10;428.83;;;;;;;16.21;56.53;99467.91;287374;34;944;-77
2022/09/20 00:55:23;;;;;;;470.57;424.30;;;;;;;16.20;56.69;99463.56;280023;34;7771;-78
2022/09/20 00:55:34;;;;;;;470.92;424.75;;;;;;;16.20;56.78;99463.56;278001;34;8991;-78
2022/09/20 00:55:48;;;;;;;475.08;428.83;;;;;;;16.18;56.78;99462.81;277396;35;1320;-77
2022/09/20 00:56:04;;;;;;;473.52;427.25;;;;;;;16.13;56.83;99467.56;277007;35;1359;-77
2022/09/20 00:58:41;;;;;;;408.72;357.26;;;;;;;16.08;56.91;99464.38;2496603;27;20535;-77
2022/09/20 00:59:17;;;;;;;437.70;392.23;;;;;;;16.09;57.17;99455.50;353034;28;1317;-77
2022/09/20 00:59:30;;;;;;;441.92;396.52;;;;;;;16.11;57.09;99463.31;346969;28;1477;-77
2022/09/20 00:59:41;;;;;;;441.83;396.23;;;;;;;16.08;56.68;99461.72;348965;28;884;-77
2022/09/20 00:59:51;;;;;;;434.30;388.83;;;;;;;16.12;57.12;99470.31;346091;28;1312;-77
2022/09/20 01:00:05;;;;;;;431.90;386.53;;;;;;;16.09;56.83;99455.50;347462;28;1331;-77
2022/09/20 01:00:15;;;;;;;435.33;389.92;;;;;;;16.10;56.95;99462.47;346085;28;1636;-77
2022/09/20 01:00:26;;;;;;;431.17;385.90;;;;;;;16.12;57.15;99459.75;345006;28;849;-77
2022/09/20 01:00:37;;;;;;;421.83;376.85;;;;;;;16.13;57.15;99456.16;350169;28;1301;-77
2022/09/20 01:00:47;;;;;;;411.23;366.67;;;;;;;16.13;56.77;99466.72;352505;28;1285;-78
2022/09/20 01:00:57;;;;;;;404.53;360.03;;;;;;;16.11;57.13;99466.81;351634;28;1255;-79
2022/09/20 01:01:08;;;;;;;409.87;365.23;;;;;;;16.10;57.10;99457.19;350322;28;1285;-78
2022/09/20 01:01:18;;;;;;;406.52;361.85;;;;;;;16.12;57.09;99463.22;352560;28;1329;-77
2022/09/20 01:01:29;;;;;;;407.80;363.07;;;;;;;16.14;57.25;99463.13;348914;28;1179;-77
2022/09/20 01:01:39;;;;;;;402.60;357.15;;;;;;;16.10;57.04;99462.47;347561;28;1211;-77
2022/09/20 01:01:52;;;;;;;403.20;357.07;;;;;;;16.12;56.97;99459.75;349021;28;793;-77
2022/09/20 01:02:08;;;;;;;403.73;358.92;;;;;;;16.13;57.49;99451.72;348935;28;1298;-77
2022/09/20 01:02:23;;;;;;;396.50;348.58;;;;;;;16.15;57.40;99459.53;348525;28;891;-77
2022/09/20 01:02:35;;;;;;;394.52;342.02;;;;;;;16.14;57.03;99458.69;351723;28;1122;-77
2022/09/20 01:02:48;;;;;;;395.90;342.30;;;;;;;16.14;56.96;99453.41;347635;28;1288;-77
2022/09/20 01:03:00;;;;;;;397.13;345.95;;;;;;;16.15;56.99;99457.75;349030;28;1514;-77
2022/09/20 01:03:11;;;;;;;396.88;338.63;;;;;;;16.13;57.40;99457.00;348922;28;1262;-77